Continental, Arizona
Current Conditions -  °F | °C
As of 3:53 PM on Thursday 27 Nov 2014 (Local Time) from KTUS Reporting Station
Clear Clear  
Wind Chill: 83°   Ceiling: Unl
Heat Index: 83°   Visibility: 10mi
Dew Point: 19°   Wind: 8mph
Humidity: 9%   Direction: 90°E
Pressure: 30.13"   Gusts: NA
Location:  31.9776°N, 110.921°W
Report Text: KTUS 272253Z 09007KT 10SM CLR 28/M07 A3013 RMK AO2 SLP172 T02831072
Loading
Personal Weather Stations






























Interactive Weather Map New forecast layout! Learn more

10-Day Weather Forecast

Advertisements
Track Severe Weather on mobile